Forseti — V2PV4 — position and weather

sailwx.info

Track history (hours):
 
Tides and Currents Weather Stations Pressure Air Temp Water Temp Dewpoint Dewpoint Depression Visibility Wind Speed Wind Dir Waves Ship Positions

Forseti

Last reported at 2017-Aug-19 23:18 UTC. Time now 2017-Aug-21 12:10 UTC.
Position N 57°59' E 024°06'.

Length 85 m; draft 5.5 m.

Type: Cargo ship. MMSI: 304010297.

Date/timePositionNaut miles runAvg speedWind from/ knotsBaromVisibWave heightAir tempDewpointWater temp
2017-Aug-19 23:18N 57°59' E 024°06'3 8.2
2017-Aug-19 22:59N 57°60' E 024°10'24 1.6
2017-Aug-19 08:04N 58°22' E 024°28'1 6.2
2017-Aug-19 07:54N 58°21' E 024°27'4 8.0
2017-Aug-19 07:26N 58°18' E 024°24'5 8.2
2017-Aug-19 06:49N 58°13' E 024°20'4 8.5
2017-Aug-19 06:22N 58°10' E 024°17'18 8.4
2017-Aug-19 04:10N 57°58' E 023°50'2 9.5
2017-Aug-19 03:58N 57°58' E 023°46'5 9.7
2017-Aug-19 03:30N 57°57' E 023°38'5 9.7
2017-Aug-19 03:00N 57°56' E 023°29'241 9.6
2017-Aug-18 02:00N 56°06' E 016°55'5 9.9
2017-Aug-18 01:31N 56°03' E 016°48'5 9.6
2017-Aug-18 01:01N 56°01' E 016°41'510.0
2017-Aug-18 00:31N 55°58' E 016°33'510.1
2017-Aug-18 00:01N 55°56' E 016°25'510.0
2017-Aug-17 23:31N 55°54' E 016°17'5 9.7
2017-Aug-17 23:01N 55°51' E 016°09'5 9.7
2017-Aug-17 22:31N 55°49' E 016°02'5 9.7
2017-Aug-17 22:01N 55°46' E 015°54'5 9.6
2017-Aug-17 21:31N 55°44' E 015°47'5 9.7
2017-Aug-17 21:01N 55°42' E 015°39'5 9.6
2017-Aug-17 20:31N 55°40' E 015°31'5 9.6
2017-Aug-17 20:01N 55°38' E 015°24'5 9.6
2017-Aug-17 19:31N 55°35' E 015°16'5 9.6
2017-Aug-17 19:01N 55°33' E 015°09'5 9.4
2017-Aug-17 18:31N 55°31' E 015°02'5 9.4
2017-Aug-17 18:00N 55°29' E 014°54'5 9.5
2017-Aug-17 17:31N 55°26' E 014°47'5 9.4
2017-Aug-17 17:01N 55°23' E 014°41'5 9.6
2017-Aug-17 16:30N 55°20' E 014°34'5 9.5
2017-Aug-17 16:01N 55°17' E 014°29'5 9.5
2017-Aug-17 15:30N 55°13' E 014°23'5 9.5
2017-Aug-17 15:01N 55°10' E 014°17'5 9.1
2017-Aug-17 14:31N 55°10' E 014°09'5 9.1
2017-Aug-17 14:01N 55°10' E 014°01'5 9.1
2017-Aug-17 13:30N 55°11' E 013°53'5 9.0
2017-Aug-17 13:00N 55°11' E 013°45'4 9.0
2017-Aug-17 12:30N 55°12' E 013°37'4 9.0
2017-Aug-17 12:00N 55°12' E 013°29'5 9.2
2017-Aug-17 11:30N 55°13' E 013°21'5 9.4
2017-Aug-17 11:00N 55°13' E 013°13'5 9.0
2017-Aug-17 10:30N 55°14' E 013°05'4 9.1
2017-Aug-17 10:01N 55°14' E 012°58'5 9.0
2017-Aug-17 09:30N 55°15' E 012°50'4 9.1
2017-Aug-17 09:01N 55°17' E 012°43'4 7.4
2017-Aug-17 08:30N 55°20' E 012°38'4 8.7
2017-Aug-17 08:01N 55°24' E 012°40'4 8.5
2017-Aug-17 07:31N 55°28' E 012°41'4 8.5
2017-Aug-17 07:01N 55°32' E 012°42'4 8.2
2017-Aug-17 06:31N 55°37' E 012°42'4 8.1
2017-Aug-17 06:01N 55°41' E 012°41'4 8.7
2017-Aug-17 05:31N 55°45' E 012°41'4 8.8
2017-Aug-17 05:01N 55°49' E 012°40'4 8.9
2017-Aug-17 04:31N 55°54' E 012°39'4 8.8
2017-Aug-17 04:01N 55°58' E 012°38'4 8.4
2017-Aug-17 03:31N 56°02' E 012°38'4 7.5
2017-Aug-17 03:01N 56°05' E 012°34'4 8.6
2017-Aug-17 02:31N 56°08' E 012°28'5 9.3
2017-Aug-17 02:01N 56°11' E 012°21'5 9.2
2017-Aug-17 01:31N 56°13' E 012°14'49 8.9
2017-Aug-16 19:57N 56°59' E 011°43'5 8.9
2017-Aug-16 19:25N 57°04' E 011°40'4 8.4
2017-Aug-16 19:00N 57°07' E 011°38'7 8.4
2017-Aug-16 18:13N 57°13' E 011°34'2 8.5
2017-Aug-16 18:00N 57°15' E 011°32'5 8.7
2017-Aug-16 17:28N 57°19' E 011°29'4 8.9
2017-Aug-16 17:00N 57°23' E 011°27'4 8.6
2017-Aug-16 16:30N 57°27' E 011°23'4 8.9
2017-Aug-16 16:01N 57°29' E 011°16'5 9.3
2017-Aug-16 15:30N 57°31' E 011°08'5 9.5
2017-Aug-16 14:59N 57°34' E 011°01'5 9.7
2017-Aug-16 14:30N 57°37' E 010°53'510.1
2017-Aug-16 14:00N 57°39' E 010°45'5 9.8
2017-Aug-16 13:31N 57°41' E 010°37'1 1.5
2017-Aug-16 12:53N 57°42' E 010°36'0 0.0
2017-Aug-16 11:17N 57°42' E 010°36'0 0.0
2017-Aug-16 11:00N 57°42' E 010°36'1 2.4
2017-Aug-16 10:31N 57°42' E 010°38'4 7.5
2017-Aug-16 10:00N 57°45' E 010°43'3 6.6
2017-Aug-16 09:30N 57°46' E 010°38'5 9.5
2017-Aug-16 09:00N 57°46' E 010°29'5 9.8
2017-Aug-16 08:31N 57°45' E 010°20'8710.2
2017-Aug-15 23:58N 57°42' E 007°37'4 9.2
2017-Aug-15 23:30N 57°44' E 007°30'3 7.0
2017-Aug-15 23:00N 57°45' E 007°24'4 8.7
2017-Aug-15 22:30N 57°47' E 007°17'4 8.5
2017-Aug-15 22:00N 57°49' E 007°09'4 8.6
2017-Aug-15 21:31N 57°51' E 007°02'4 8.7
2017-Aug-15 21:00N 57°53' E 006°55'4 8.7
2017-Aug-15 20:31N 57°54' E 006°47'4 8.7
2017-Aug-15 20:00N 57°56' E 006°40'4 8.5
2017-Aug-15 19:30N 57°60' E 006°35'4 8.5
2017-Aug-15 19:00N 58°03' E 006°30'4 8.3
2017-Aug-15 18:30N 58°06' E 006°25'4 8.5
2017-Aug-15 18:01N 58°10' E 006°21'4 8.8
2017-Aug-15 17:30N 58°13' E 006°16'4 7.5
2017-Aug-15 17:00N 58°17' E 006°13'3 6.2
2017-Aug-15 16:30N 58°20' E 006°15'0 0.0
2017-Aug-15 15:59N 58°20' E 006°15'0 0.0
2017-Aug-15 15:30N 58°20' E 006°15'0 0.0
2017-Aug-15 14:59N 58°20' E 006°15'0 0.0
2017-Aug-15 14:30N 58°20' E 006°15'0 0.0
2017-Aug-15 14:00N 58°20' E 006°15'0 0.1
2017-Aug-15 13:29N 58°20' E 006°15'0 0.0
2017-Aug-15 12:59N 58°20' E 006°15'0 0.0
2017-Aug-15 12:30N 58°20' E 006°15'0 0.0
2017-Aug-15 11:59N 58°20' E 006°15'0 0.0
2017-Aug-15 11:30N 58°20' E 006°15'0 0.0
2017-Aug-15 11:01N 58°20' E 006°15'0 0.0
2017-Aug-15 10:29N 58°20' E 006°15'0 0.0
2017-Aug-15 09:59N 58°20' E 006°15'0 0.0
2017-Aug-15 09:31N 58°20' E 006°15'0 0.0
2017-Aug-15 09:00N 58°20' E 006°15'0 0.0
2017-Aug-15 08:30N 58°20' E 006°15'0 0.0
2017-Aug-15 08:00N 58°20' E 006°15'0 0.0
2017-Aug-15 07:30N 58°20' E 006°15'0 0.0
2017-Aug-15 07:00N 58°20' E 006°15'0 0.0
2017-Aug-15 06:30N 58°20' E 006°15'0 0.0
2017-Aug-15 06:00N 58°20' E 006°15'0 0.0
2017-Aug-15 05:30N 58°20' E 006°15'0 0.0
2017-Aug-15 05:00N 58°20' E 006°15'0 0.8
2017-Aug-15 04:30N 58°19' E 006°16'2 4.1
2017-Aug-15 04:01N 58°18' E 006°13'0 0.7
2017-Aug-15 03:30N 58°18' E 006°13'0 0.4
2017-Aug-15 03:00N 58°18' E 006°13'1 1.4
2017-Aug-15 02:29N 58°17' E 006°13'1 2.1
2017-Aug-15 02:00N 58°16' E 006°12'1 2.8
2017-Aug-15 01:30N 58°15' E 006°11'1 2.8
2017-Aug-15 01:00N 58°14' E 006°09'2 4.4
2017-Aug-15 00:30N 58°12' E 006°09'3 5.2
2017-Aug-15 00:00N 58°09' E 006°09'2 4.5
2017-Aug-14 23:30N 58°07' E 006°09'2 4.5
2017-Aug-14 23:00N 58°05' E 006°09'2 4.4
2017-Aug-14 22:30N 58°03' E 006°10'2 5.0
2017-Aug-14 22:00N 58°00' E 006°10'510.9
2017-Aug-14 21:30N 57°55' E 006°09'405 9.9
2017-Aug-13 04:31N 51°32' E 002°21'012.4
2017-Aug-13 04:31N 51°32' E 002°20'611.7
2017-Aug-13 04:00N 51°27' E 002°15'611.7
2017-Aug-13 03:31N 51°22' E 002°11'611.7
2017-Aug-13 03:01N 51°17' E 002°07'611.5
2017-Aug-13 02:31N 51°12' E 002°01'612.0
2017-Aug-13 02:01N 51°09' E 001°53'611.8
2017-Aug-13 01:30N 51°05' E 001°46'611.5
2017-Aug-13 01:01N 51°01' E 001°40'511.0
2017-Aug-13 00:30N 50°57' E 001°34'510.0
2017-Aug-13 00:00N 50°53' E 001°29'8 9.1
2017-Aug-12 23:10N 50°46' E 001°24'1 9.0
2017-Aug-12 23:00N 50°45' E 001°23'4 8.5
2017-Aug-12 22:29N 50°41' E 001°19'43 8.7
2017-Aug-12 17:35N 50°25' E 000°17'1 8.2
2017-Aug-12 17:30N 50°24' E 000°16'4 8.3
2017-Aug-12 17:00N 50°23' E 000°10'4 8.3
2017-Aug-12 16:30N 50°22' E 000°04'4 8.1
2017-Aug-12 16:00N 50°23' W 000°03'5 9.5
2017-Aug-12 15:30N 50°27' W 000°04'5 9.6
2017-Aug-12 15:00N 50°32' W 000°06'5 9.8
2017-Aug-12 14:30N 50°37' W 000°08'5 9.8
2017-Aug-12 14:00N 50°41' W 000°09'510.3
2017-Aug-12 13:30N 50°46' W 000°12'4 7.7
2017-Aug-12 13:01N 50°50' W 000°15'0 0.7
2017-Aug-12 12:30N 50°50' W 000°14'0 0.0
2017-Aug-12 12:00N 50°50' W 000°14'0 0.0
2017-Aug-12 11:30N 50°50' W 000°14'0 0.0
2017-Aug-12 11:00N 50°50' W 000°14'0 0.0
2017-Aug-12 10:27N 50°50' W 000°14'0 0.0
2017-Aug-12 10:00N 50°50' W 000°14'0 0.0
2017-Aug-12 09:27N 50°50' W 000°14'0 0.0
2017-Aug-12 09:00N 50°50' W 000°14'0 0.0
2017-Aug-12 08:30N 50°50' W 000°14'0 0.0
2017-Aug-12 08:00N 50°50' W 000°14'0 0.0
2017-Aug-12 07:30N 50°50' W 000°14'0 0.0
2017-Aug-12 07:00N 50°50' W 000°14'0 0.0
2017-Aug-12 06:27N 50°50' W 000°14'0 0.0
2017-Aug-12 06:00N 50°50' W 000°14'0 0.0
2017-Aug-12 05:30N 50°50' W 000°14'0 0.0
2017-Aug-12 05:00N 50°50' W 000°14'0 0.0
2017-Aug-12 04:30N 50°50' W 000°14'0 0.0
2017-Aug-12 04:00N 50°50' W 000°14'0 0.0
2017-Aug-12 03:30N 50°50' W 000°14'0 0.0
2017-Aug-12 03:00N 50°50' W 000°14'0 0.0
2017-Aug-12 02:30N 50°50' W 000°14'0 0.0
2017-Aug-12 02:00N 50°50' W 000°14'0 0.0
2017-Aug-12 01:30N 50°50' W 000°14'0 0.0
2017-Aug-12 01:00N 50°50' W 000°14'0 0.0
2017-Aug-12 00:30N 50°50' W 000°14'0 0.0
2017-Aug-12 00:00N 50°50' W 000°14'0 0.0
2017-Aug-11 23:30N 50°50' W 000°14'0 0.0
2017-Aug-11 23:00N 50°50' W 000°14'0 0.0
2017-Aug-11 22:30N 50°50' W 000°14'0 0.0
2017-Aug-11 22:00N 50°50' W 000°14'0 0.0
2017-Aug-11 21:30N 50°50' W 000°14'0 0.0
2017-Aug-11 21:00N 50°50' W 000°14'0 0.0
2017-Aug-11 20:30N 50°50' W 000°14'0 0.0
2017-Aug-11 20:00N 50°50' W 000°14'0 0.0
2017-Aug-11 19:30N 50°50' W 000°14'0 0.0
2017-Aug-11 18:59N 50°50' W 000°14'0 0.0
2017-Aug-11 18:29N 50°50' W 000°14'0 0.0
2017-Aug-11 17:59N 50°50' W 000°14'0 0.0
2017-Aug-11 17:29N 50°50' W 000°14'0 0.0
2017-Aug-11 16:59N 50°50' W 000°14'0 0.0
2017-Aug-11 16:29N 50°50' W 000°14'0 0.0
2017-Aug-11 15:59N 50°50' W 000°14'0 0.0
2017-Aug-11 15:29N 50°50' W 000°14'0 0.0
2017-Aug-11 14:59N 50°50' W 000°14'0 0.0
2017-Aug-11 13:59N 50°50' W 000°14'0 0.0
2017-Aug-11 13:29N 50°50' W 000°14'0 0.0
2017-Aug-11 12:59N 50°50' W 000°14'0 0.0
2017-Aug-11 12:29N 50°50' W 000°14'0 0.0
2017-Aug-11 11:59N 50°50' W 000°14'0 0.0
2017-Aug-11 11:29N 50°50' W 000°14'0 0.0
2017-Aug-11 10:59N 50°50' W 000°14'0 0.0
2017-Aug-11 10:29N 50°50' W 000°14'0 0.0
2017-Aug-11 09:59N 50°50' W 000°14'0 0.0
2017-Aug-11 09:29N 50°50' W 000°14'0 0.0
2017-Aug-11 08:59N 50°50' W 000°14'0 0.0
2017-Aug-11 08:29N 50°50' W 000°14'0 0.0
2017-Aug-11 07:59N 50°50' W 000°14'0 0.0
2017-Aug-11 07:29N 50°50' W 000°14'0 0.0
2017-Aug-11 06:59N 50°50' W 000°14'0 0.0
2017-Aug-11 06:29N 50°50' W 000°14'0 0.0
2017-Aug-11 05:59N 50°50' W 000°14'0 0.0
2017-Aug-11 05:29N 50°50' W 000°14'0 0.0
2017-Aug-11 04:59N 50°50' W 000°14'0 0.0
2017-Aug-11 04:29N 50°50' W 000°14'0 0.0
2017-Aug-11 03:59N 50°50' W 000°14'0 0.0
2017-Aug-11 03:29N 50°50' W 000°14'0 0.0
2017-Aug-11 02:59N 50°50' W 000°14'0 0.0
2017-Aug-11 02:29N 50°50' W 000°14'0 0.0
2017-Aug-11 01:59N 50°50' W 000°14'0 0.0
2017-Aug-11 01:29N 50°50' W 000°14'0 0.0
2017-Aug-11 01:00N 50°50' W 000°14'0 0.7
2017-Aug-11 00:30N 50°50' W 000°15'2 3.9
2017-Aug-11 00:01N 50°48' W 000°15'0 0.1
2017-Aug-10 23:29N 50°48' W 000°15'0 0.0
2017-Aug-10 22:59N 50°48' W 000°15'0 0.0
2017-Aug-10 22:29N 50°48' W 000°15'0 0.0
2017-Aug-10 21:59N 50°48' W 000°15'0 0.0
2017-Aug-10 21:29N 50°48' W 000°15'0 0.0
2017-Aug-10 20:59N 50°48' W 000°15'0 0.0
2017-Aug-10 20:23N 50°48' W 000°15'0 0.0
2017-Aug-10 19:59N 50°48' W 000°15'0 0.1
2017-Aug-10 19:29N 50°48' W 000°15'0 0.1
2017-Aug-10 18:59N 50°48' W 000°15'0 0.0
2017-Aug-10 18:29N 50°48' W 000°15'0 0.0
2017-Aug-10 17:59N 50°48' W 000°15'0 0.0
2017-Aug-10 17:29N 50°47' W 000°15'0 0.0
2017-Aug-10 16:59N 50°48' W 000°15'0 0.0
2017-Aug-10 16:26N 50°47' W 000°15'0 0.0
2017-Aug-10 15:59N 50°48' W 000°15'0 0.0
2017-Aug-10 15:26N 50°48' W 000°15'0 0.0
2017-Aug-10 14:59N 50°48' W 000°15'0 0.0
2017-Aug-10 14:29N 50°48' W 000°15'0 0.1
2017-Aug-10 13:56N 50°48' W 000°15'1 3.0
2017-Aug-10 13:31N 50°47' W 000°13'510.4
2017-Aug-10 13:00N 50°45' W 000°05'510.3
2017-Aug-10 12:30N 50°44' E 000°02'5 9.7
2017-Aug-10 12:00N 50°43' E 000°10'5 9.1
2017-Aug-10 11:31N 50°41' E 000°17'4 8.7
2017-Aug-10 11:01N 50°40' E 000°23'4 8.3
2017-Aug-10 10:31N 50°39' E 000°29'4 8.1
2017-Aug-10 10:00N 50°40' E 000°36'5 9.2
2017-Aug-10 09:31N 50°42' E 000°42'510.0
2017-Aug-10 09:00N 50°45' E 000°49'1911.6
2017-Aug-10 07:23N 50°56' E 001°13'512.5
2017-Aug-10 07:00N 50°59' E 001°18'612.4
2017-Aug-10 06:30N 51°03' E 001°26'611.5
2017-Aug-10 06:01N 51°06' E 001°33'510.4
2017-Aug-10 05:30N 51°10' E 001°39'5 9.7
2017-Aug-10 05:01N 51°13' E 001°44'5 9.4
2017-Aug-10 04:31N 51°18' E 001°48'4 8.7
2017-Aug-10 04:01N 51°22' E 001°51'4 8.3
2017-Aug-10 03:30N 51°25' E 001°54'4 8.1
2017-Aug-10 03:00N 51°29' E 001°57'4 8.1
2017-Aug-10 02:31N 51°32' E 002°01'4 8.5
2017-Aug-10 02:01N 51°35' E 002°06'5 9.1
2017-Aug-10 01:30N 51°39' E 002°11'6 9.6
2017-Aug-10 00:50N 51°44' E 002°16'410.3
2017-Aug-10 00:27N 51°48' E 002°19'510.8
2017-Aug-10 00:00N 51°52' E 002°23'611.2
2017-Aug-09 23:27N 51°57' E 002°27'  
Track history (hours):
 
Tides and Currents Weather Stations Pressure Air Temp Water Temp Dewpoint Dewpoint Depression Visibility Wind Speed Wind Dir Waves Ship Positions

Forseti

Last reported at 2017-Aug-19 23:18 UTC. Time now 2017-Aug-21 12:10 UTC.
Position N 57°59' E 024°06'.

Length 85 m; draft 5.5 m.

Type: Cargo ship. MMSI: 304010297.

Date/timePositionNaut miles runAvg speedWind from/ knotsBaromVisibWave heightAir tempDewpointWater temp
2017-Aug-19 23:18N 57°59' E 024°06'3 8.2
2017-Aug-19 22:59N 57°60' E 024°10'24 1.6
2017-Aug-19 08:04N 58°22' E 024°28'1 6.2
2017-Aug-19 07:54N 58°21' E 024°27'4 8.0
2017-Aug-19 07:26N 58°18' E 024°24'5 8.2
2017-Aug-19 06:49N 58°13' E 024°20'4 8.5
2017-Aug-19 06:22N 58°10' E 024°17'18 8.4
2017-Aug-19 04:10N 57°58' E 023°50'2 9.5
2017-Aug-19 03:58N 57°58' E 023°46'5 9.7
2017-Aug-19 03:30N 57°57' E 023°38'5 9.7
2017-Aug-19 03:00N 57°56' E 023°29'241 9.6
2017-Aug-18 02:00N 56°06' E 016°55'5 9.9
2017-Aug-18 01:31N 56°03' E 016°48'5 9.6
2017-Aug-18 01:01N 56°01' E 016°41'510.0
2017-Aug-18 00:31N 55°58' E 016°33'510.1
2017-Aug-18 00:01N 55°56' E 016°25'510.0
2017-Aug-17 23:31N 55°54' E 016°17'5 9.7
2017-Aug-17 23:01N 55°51' E 016°09'5 9.7
2017-Aug-17 22:31N 55°49' E 016°02'5 9.7
2017-Aug-17 22:01N 55°46' E 015°54'5 9.6
2017-Aug-17 21:31N 55°44' E 015°47'5 9.7
2017-Aug-17 21:01N 55°42' E 015°39'5 9.6
2017-Aug-17 20:31N 55°40' E 015°31'5 9.6
2017-Aug-17 20:01N 55°38' E 015°24'5 9.6
2017-Aug-17 19:31N 55°35' E 015°16'5 9.6
2017-Aug-17 19:01N 55°33' E 015°09'5 9.4
2017-Aug-17 18:31N 55°31' E 015°02'5 9.4
2017-Aug-17 18:00N 55°29' E 014°54'5 9.5
2017-Aug-17 17:31N 55°26' E 014°47'5 9.4
2017-Aug-17 17:01N 55°23' E 014°41'5 9.6
2017-Aug-17 16:30N 55°20' E 014°34'5 9.5
2017-Aug-17 16:01N 55°17' E 014°29'5 9.5
2017-Aug-17 15:30N 55°13' E 014°23'5 9.5
2017-Aug-17 15:01N 55°10' E 014°17'5 9.1
2017-Aug-17 14:31N 55°10' E 014°09'5 9.1
2017-Aug-17 14:01N 55°10' E 014°01'5 9.1
2017-Aug-17 13:30N 55°11' E 013°53'5 9.0
2017-Aug-17 13:00N 55°11' E 013°45'4 9.0
2017-Aug-17 12:30N 55°12' E 013°37'4 9.0
2017-Aug-17 12:00N 55°12' E 013°29'5 9.2
2017-Aug-17 11:30N 55°13' E 013°21'5 9.4
2017-Aug-17 11:00N 55°13' E 013°13'5 9.0
2017-Aug-17 10:30N 55°14' E 013°05'4 9.1
2017-Aug-17 10:01N 55°14' E 012°58'5 9.0
2017-Aug-17 09:30N 55°15' E 012°50'4 9.1
2017-Aug-17 09:01N 55°17' E 012°43'4 7.4
2017-Aug-17 08:30N 55°20' E 012°38'4 8.7
2017-Aug-17 08:01N 55°24' E 012°40'4 8.5
2017-Aug-17 07:31N 55°28' E 012°41'4 8.5
2017-Aug-17 07:01N 55°32' E 012°42'4 8.2
2017-Aug-17 06:31N 55°37' E 012°42'4 8.1
2017-Aug-17 06:01N 55°41' E 012°41'4 8.7
2017-Aug-17 05:31N 55°45' E 012°41'4 8.8
2017-Aug-17 05:01N 55°49' E 012°40'4 8.9
2017-Aug-17 04:31N 55°54' E 012°39'4 8.8
2017-Aug-17 04:01N 55°58' E 012°38'4 8.4
2017-Aug-17 03:31N 56°02' E 012°38'4 7.5
2017-Aug-17 03:01N 56°05' E 012°34'4 8.6
2017-Aug-17 02:31N 56°08' E 012°28'5 9.3
2017-Aug-17 02:01N 56°11' E 012°21'5 9.2
2017-Aug-17 01:31N 56°13' E 012°14'49 8.9
2017-Aug-16 19:57N 56°59' E 011°43'5 8.9
2017-Aug-16 19:25N 57°04' E 011°40'4 8.4
2017-Aug-16 19:00N 57°07' E 011°38'7 8.4
2017-Aug-16 18:13N 57°13' E 011°34'2 8.5
2017-Aug-16 18:00N 57°15' E 011°32'5 8.7
2017-Aug-16 17:28N 57°19' E 011°29'4 8.9
2017-Aug-16 17:00N 57°23' E 011°27'4 8.6
2017-Aug-16 16:30N 57°27' E 011°23'4 8.9
2017-Aug-16 16:01N 57°29' E 011°16'5 9.3
2017-Aug-16 15:30N 57°31' E 011°08'5 9.5
2017-Aug-16 14:59N 57°34' E 011°01'5 9.7
2017-Aug-16 14:30N 57°37' E 010°53'510.1
2017-Aug-16 14:00N 57°39' E 010°45'5 9.8
2017-Aug-16 13:31N 57°41' E 010°37'1 1.5
2017-Aug-16 12:53N 57°42' E 010°36'0 0.0
2017-Aug-16 11:17N 57°42' E 010°36'0 0.0
2017-Aug-16 11:00N 57°42' E 010°36'1 2.4
2017-Aug-16 10:31N 57°42' E 010°38'4 7.5
2017-Aug-16 10:00N 57°45' E 010°43'3 6.6
2017-Aug-16 09:30N 57°46' E 010°38'5 9.5
2017-Aug-16 09:00N 57°46' E 010°29'5 9.8
2017-Aug-16 08:31N 57°45' E 010°20'8710.2
2017-Aug-15 23:58N 57°42' E 007°37'4 9.2
2017-Aug-15 23:30N 57°44' E 007°30'3 7.0
2017-Aug-15 23:00N 57°45' E 007°24'4 8.7
2017-Aug-15 22:30N 57°47' E 007°17'4 8.5
2017-Aug-15 22:00N 57°49' E 007°09'4 8.6
2017-Aug-15 21:31N 57°51' E 007°02'4 8.7
2017-Aug-15 21:00N 57°53' E 006°55'4 8.7
2017-Aug-15 20:31N 57°54' E 006°47'4 8.7
2017-Aug-15 20:00N 57°56' E 006°40'4 8.5
2017-Aug-15 19:30N 57°60' E 006°35'4 8.5
2017-Aug-15 19:00N 58°03' E 006°30'4 8.3
2017-Aug-15 18:30N 58°06' E 006°25'4 8.5
2017-Aug-15 18:01N 58°10' E 006°21'4 8.8
2017-Aug-15 17:30N 58°13' E 006°16'4 7.5
2017-Aug-15 17:00N 58°17' E 006°13'3 6.2
2017-Aug-15 16:30N 58°20' E 006°15'0 0.0
2017-Aug-15 15:59N 58°20' E 006°15'0 0.0
2017-Aug-15 15:30N 58°20' E 006°15'0 0.0
2017-Aug-15 14:59N 58°20' E 006°15'0 0.0
2017-Aug-15 14:30N 58°20' E 006°15'0 0.0
2017-Aug-15 14:00N 58°20' E 006°15'0 0.1
2017-Aug-15 13:29N 58°20' E 006°15'0 0.0
2017-Aug-15 12:59N 58°20' E 006°15'0 0.0
2017-Aug-15 12:30N 58°20' E 006°15'0 0.0
2017-Aug-15 11:59N 58°20' E 006°15'0 0.0
2017-Aug-15 11:30N 58°20' E 006°15'0 0.0
2017-Aug-15 11:01N 58°20' E 006°15'0 0.0
2017-Aug-15 10:29N 58°20' E 006°15'0 0.0
2017-Aug-15 09:59N 58°20' E 006°15'0 0.0
2017-Aug-15 09:31N 58°20' E 006°15'0 0.0
2017-Aug-15 09:00N 58°20' E 006°15'0 0.0
2017-Aug-15 08:30N 58°20' E 006°15'0 0.0
2017-Aug-15 08:00N 58°20' E 006°15'0 0.0
2017-Aug-15 07:30N 58°20' E 006°15'0 0.0
2017-Aug-15 07:00N 58°20' E 006°15'0 0.0
2017-Aug-15 06:30N 58°20' E 006°15'0 0.0
2017-Aug-15 06:00N 58°20' E 006°15'0 0.0
2017-Aug-15 05:30N 58°20' E 006°15'0 0.0
2017-Aug-15 05:00N 58°20' E 006°15'0 0.8
2017-Aug-15 04:30N 58°19' E 006°16'2 4.1
2017-Aug-15 04:01N 58°18' E 006°13'0 0.7
2017-Aug-15 03:30N 58°18' E 006°13'0 0.4
2017-Aug-15 03:00N 58°18' E 006°13'1 1.4
2017-Aug-15 02:29N 58°17' E 006°13'1 2.1
2017-Aug-15 02:00N 58°16' E 006°12'1 2.8
2017-Aug-15 01:30N 58°15' E 006°11'1 2.8
2017-Aug-15 01:00N 58°14' E 006°09'2 4.4
2017-Aug-15 00:30N 58°12' E 006°09'3 5.2
2017-Aug-15 00:00N 58°09' E 006°09'2 4.5
2017-Aug-14 23:30N 58°07' E 006°09'2 4.5
2017-Aug-14 23:00N 58°05' E 006°09'2 4.4
2017-Aug-14 22:30N 58°03' E 006°10'2 5.0
2017-Aug-14 22:00N 58°00' E 006°10'510.9
2017-Aug-14 21:30N 57°55' E 006°09'405 9.9
2017-Aug-13 04:31N 51°32' E 002°21'012.4
2017-Aug-13 04:31N 51°32' E 002°20'611.7
2017-Aug-13 04:00N 51°27' E 002°15'611.7
2017-Aug-13 03:31N 51°22' E 002°11'611.7
2017-Aug-13 03:01N 51°17' E 002°07'611.5
2017-Aug-13 02:31N 51°12' E 002°01'612.0
2017-Aug-13 02:01N 51°09' E 001°53'611.8
2017-Aug-13 01:30N 51°05' E 001°46'611.5
2017-Aug-13 01:01N 51°01' E 001°40'511.0
2017-Aug-13 00:30N 50°57' E 001°34'510.0
2017-Aug-13 00:00N 50°53' E 001°29'8 9.1
2017-Aug-12 23:10N 50°46' E 001°24'1 9.0
2017-Aug-12 23:00N 50°45' E 001°23'4 8.5
2017-Aug-12 22:29N 50°41' E 001°19'43 8.7
2017-Aug-12 17:35N 50°25' E 000°17'1 8.2
2017-Aug-12 17:30N 50°24' E 000°16'4 8.3
2017-Aug-12 17:00N 50°23' E 000°10'4 8.3
2017-Aug-12 16:30N 50°22' E 000°04'4 8.1
2017-Aug-12 16:00N 50°23' W 000°03'5 9.5
2017-Aug-12 15:30N 50°27' W 000°04'5 9.6
2017-Aug-12 15:00N 50°32' W 000°06'5 9.8
2017-Aug-12 14:30N 50°37' W 000°08'5 9.8
2017-Aug-12 14:00N 50°41' W 000°09'510.3
2017-Aug-12 13:30N 50°46' W 000°12'4 7.7
2017-Aug-12 13:01N 50°50' W 000°15'0 0.7
2017-Aug-12 12:30N 50°50' W 000°14'0 0.0
2017-Aug-12 12:00N 50°50' W 000°14'0 0.0
2017-Aug-12 11:30N 50°50' W 000°14'0 0.0
2017-Aug-12 11:00N 50°50' W 000°14'0 0.0
2017-Aug-12 10:27N 50°50' W 000°14'0 0.0
2017-Aug-12 10:00N 50°50' W 000°14'0 0.0
2017-Aug-12 09:27N 50°50' W 000°14'0 0.0
2017-Aug-12 09:00N 50°50' W 000°14'0 0.0
2017-Aug-12 08:30N 50°50' W 000°14'0 0.0
2017-Aug-12 08:00N 50°50' W 000°14'0 0.0
2017-Aug-12 07:30N 50°50' W 000°14'0 0.0
2017-Aug-12 07:00N 50°50' W 000°14'0 0.0
2017-Aug-12 06:27N 50°50' W 000°14'0 0.0
2017-Aug-12 06:00N 50°50' W 000°14'0 0.0
2017-Aug-12 05:30N 50°50' W 000°14'0 0.0
2017-Aug-12 05:00N 50°50' W 000°14'0 0.0
2017-Aug-12 04:30N 50°50' W 000°14'0 0.0
2017-Aug-12 04:00N 50°50' W 000°14'0 0.0
2017-Aug-12 03:30N 50°50' W 000°14'0 0.0
2017-Aug-12 03:00N 50°50' W 000°14'0 0.0
2017-Aug-12 02:30N 50°50' W 000°14'0 0.0
2017-Aug-12 02:00N 50°50' W 000°14'0 0.0
2017-Aug-12 01:30N 50°50' W 000°14'0 0.0
2017-Aug-12 01:00N 50°50' W 000°14'0 0.0
2017-Aug-12 00:30N 50°50' W 000°14'0 0.0
2017-Aug-12 00:00N 50°50' W 000°14'0 0.0
2017-Aug-11 23:30N 50°50' W 000°14'0 0.0
2017-Aug-11 23:00N 50°50' W 000°14'0 0.0
2017-Aug-11 22:30N 50°50' W 000°14'0 0.0
2017-Aug-11 22:00N 50°50' W 000°14'0 0.0
2017-Aug-11 21:30N 50°50' W 000°14'0 0.0
2017-Aug-11 21:00N 50°50' W 000°14'0 0.0
2017-Aug-11 20:30N 50°50' W 000°14'0 0.0
2017-Aug-11 20:00N 50°50' W 000°14'0 0.0
2017-Aug-11 19:30N 50°50' W 000°14'0 0.0
2017-Aug-11 18:59N 50°50' W 000°14'0 0.0
2017-Aug-11 18:29N 50°50' W 000°14'0 0.0
2017-Aug-11 17:59N 50°50' W 000°14'0 0.0
2017-Aug-11 17:29N 50°50' W 000°14'0 0.0
2017-Aug-11 16:59N 50°50' W 000°14'0 0.0
2017-Aug-11 16:29N 50°50' W 000°14'0 0.0
2017-Aug-11 15:59N 50°50' W 000°14'0 0.0
2017-Aug-11 15:29N 50°50' W 000°14'0 0.0
2017-Aug-11 14:59N 50°50' W 000°14'0 0.0
2017-Aug-11 13:59N 50°50' W 000°14'0 0.0
2017-Aug-11 13:29N 50°50' W 000°14'0 0.0
2017-Aug-11 12:59N 50°50' W 000°14'0 0.0
2017-Aug-11 12:29N 50°50' W 000°14'0 0.0
2017-Aug-11 11:59N 50°50' W 000°14'0 0.0
2017-Aug-11 11:29N 50°50' W 000°14'0 0.0
2017-Aug-11 10:59N 50°50' W 000°14'0 0.0
2017-Aug-11 10:29N 50°50' W 000°14'0 0.0
2017-Aug-11 09:59N 50°50' W 000°14'0 0.0
2017-Aug-11 09:29N 50°50' W 000°14'0 0.0
2017-Aug-11 08:59N 50°50' W 000°14'0 0.0
2017-Aug-11 08:29N 50°50' W 000°14'0 0.0
2017-Aug-11 07:59N 50°50' W 000°14'0 0.0
2017-Aug-11 07:29N 50°50' W 000°14'0 0.0
2017-Aug-11 06:59N 50°50' W 000°14'0 0.0
2017-Aug-11 06:29N 50°50' W 000°14'0 0.0
2017-Aug-11 05:59N 50°50' W 000°14'0 0.0
2017-Aug-11 05:29N 50°50' W 000°14'0 0.0
2017-Aug-11 04:59N 50°50' W 000°14'0 0.0
2017-Aug-11 04:29N 50°50' W 000°14'0 0.0
2017-Aug-11 03:59N 50°50' W 000°14'0 0.0
2017-Aug-11 03:29N 50°50' W 000°14'0 0.0
2017-Aug-11 02:59N 50°50' W 000°14'0 0.0
2017-Aug-11 02:29N 50°50' W 000°14'0 0.0
2017-Aug-11 01:59N 50°50' W 000°14'0 0.0
2017-Aug-11 01:29N 50°50' W 000°14'0 0.0
2017-Aug-11 01:00N 50°50' W 000°14'0 0.7
2017-Aug-11 00:30N 50°50' W 000°15'2 3.9
2017-Aug-11 00:01N 50°48' W 000°15'0 0.1
2017-Aug-10 23:29N 50°48' W 000°15'0 0.0
2017-Aug-10 22:59N 50°48' W 000°15'0 0.0
2017-Aug-10 22:29N 50°48' W 000°15'0 0.0
2017-Aug-10 21:59N 50°48' W 000°15'0 0.0
2017-Aug-10 21:29N 50°48' W 000°15'0 0.0
2017-Aug-10 20:59N 50°48' W 000°15'0 0.0
2017-Aug-10 20:23N 50°48' W 000°15'0 0.0
2017-Aug-10 19:59N 50°48' W 000°15'0 0.1
2017-Aug-10 19:29N 50°48' W 000°15'0 0.1
2017-Aug-10 18:59N 50°48' W 000°15'0 0.0
2017-Aug-10 18:29N 50°48' W 000°15'0 0.0
2017-Aug-10 17:59N 50°48' W 000°15'0 0.0
2017-Aug-10 17:29N 50°47' W 000°15'0 0.0
2017-Aug-10 16:59N 50°48' W 000°15'0 0.0
2017-Aug-10 16:26N 50°47' W 000°15'0 0.0
2017-Aug-10 15:59N 50°48' W 000°15'0 0.0
2017-Aug-10 15:26N 50°48' W 000°15'0 0.0
2017-Aug-10 14:59N 50°48' W 000°15'0 0.0
2017-Aug-10 14:29N 50°48' W 000°15'0 0.1
2017-Aug-10 13:56N 50°48' W 000°15'1 3.0
2017-Aug-10 13:31N 50°47' W 000°13'510.4
2017-Aug-10 13:00N 50°45' W 000°05'510.3
2017-Aug-10 12:30N 50°44' E 000°02'5 9.7
2017-Aug-10 12:00N 50°43' E 000°10'5 9.1
2017-Aug-10 11:31N 50°41' E 000°17'4 8.7
2017-Aug-10 11:01N 50°40' E 000°23'4 8.3
2017-Aug-10 10:31N 50°39' E 000°29'4 8.1
2017-Aug-10 10:00N 50°40' E 000°36'5 9.2
2017-Aug-10 09:31N 50°42' E 000°42'510.0
2017-Aug-10 09:00N 50°45' E 000°49'1911.6
2017-Aug-10 07:23N 50°56' E 001°13'512.5
2017-Aug-10 07:00N 50°59' E 001°18'612.4
2017-Aug-10 06:30N 51°03' E 001°26'611.5
2017-Aug-10 06:01N 51°06' E 001°33'510.4
2017-Aug-10 05:30N 51°10' E 001°39'5 9.7
2017-Aug-10 05:01N 51°13' E 001°44'5 9.4
2017-Aug-10 04:31N 51°18' E 001°48'4 8.7
2017-Aug-10 04:01N 51°22' E 001°51'4 8.3
2017-Aug-10 03:30N 51°25' E 001°54'4 8.1
2017-Aug-10 03:00N 51°29' E 001°57'4 8.1
2017-Aug-10 02:31N 51°32' E 002°01'4 8.5
2017-Aug-10 02:01N 51°35' E 002°06'5 9.1
2017-Aug-10 01:30N 51°39' E 002°11'6 9.6
2017-Aug-10 00:50N 51°44' E 002°16'410.3
2017-Aug-10 00:27N 51°48' E 002°19'510.8
2017-Aug-10 00:00N 51°52' E 002°23'611.2
2017-Aug-09 23:27N 51°57' E 002°27'  

Dump ship's entire track history